Time;durP1;ratioP1;P1;durP2;ratioP2;P2;SDS_P1;SDS_P2;PMS_P1;PMS_P2;Temp;Humidity;BMP_temperature;BMP_pressure;BME280_temperature;BME280_humidity;BME280_pressure;Samples;Min_cycle;Max_cycle;Signal;HPM_P1;HPM_P2
2021/01/03 00:02:43;;;;;;;83.73;27.87;;;;;;;;;;12887222;23;20207;-55
2021/01/03 00:07:45;;;;;;;77.93;27.60;;;;;;;;;;12888614;23;20179;-56
2021/01/03 00:12:47;;;;;;;81.07;29.43;;;;;;;;;;12887423;23;20213;-56
2021/01/03 00:17:50;;;;;;;84.30;28.90;;;;;;;;;;12890169;23;20175;-55
2021/01/03 00:22:52;;;;;;;91.17;27.97;;;;;;;;;;12884108;23;20703;-56
2021/01/03 00:27:54;;;;;;;79.83;26.23;;;;;;;;;;12889421;23;20234;-57
2021/01/03 00:32:57;;;;;;;76.43;25.57;;;;;;;;;;12887494;23;20210;-55
2021/01/03 00:37:59;;;;;;;79.13;25.03;;;;;;;;;;12886232;23;20185;-54
2021/01/03 00:43:01;;;;;;;79.47;24.37;;;;;;;;;;12887790;23;21020;-57
2021/01/03 00:48:05;;;;;;;77.40;23.70;;;;;;;;;;12885417;23;20183;-57
2021/01/03 00:53:07;;;;;;;78.23;24.20;;;;;;;;;;12886775;23;20210;-56
2021/01/03 00:58:08;;;;;;;73.90;24.07;;;;;;;;;;12885334;23;20633;-55
2021/01/03 01:03:11;;;;;;;71.93;23.97;;;;;;;;;;12888421;22;20207;-58
2021/01/03 01:08:13;;;;;;;74.97;25.37;;;;;;;;;;12883788;23;20246;-55
2021/01/03 01:13:15;;;;;;;73.10;25.83;;;;;;;;;;12888483;23;20294;-55
2021/01/03 01:18:18;;;;;;;64.97;23.97;;;;;;;;;;12885067;23;20638;-56
2021/01/03 01:23:20;;;;;;;68.57;24.33;;;;;;;;;;12886709;23;20225;-57
2021/01/03 01:28:21;;;;;;;71.33;25.40;;;;;;;;;;12885059;23;20770;-56
2021/01/03 01:33:25;;;;;;;77.77;26.07;;;;;;;;;;12887367;23;20203;-56
2021/01/03 01:38:26;;;;;;;88.03;27.97;;;;;;;;;;12882894;23;20190;-56
2021/01/03 01:43:28;;;;;;;76.67;26.40;;;;;;;;;;12886374;23;20956;-56
2021/01/03 01:48:33;;;;;;;85.07;26.30;;;;;;;;;;12885776;23;20652;-57
2021/01/03 01:53:36;;;;;;;69.83;23.37;;;;;;;;;;12886512;23;20720;-56
2021/01/03 01:58:45;;;;;;;73.07;25.27;;;;;;;;;;12888618;23;20175;-57
2021/01/03 02:03:50;;;;;;;69.03;23.13;;;;;;;;;;12887155;23;20630;-55
2021/01/03 02:08:57;;;;;;;75.70;25.20;;;;;;;;;;12882716;23;20181;-57
2021/01/03 02:14:00;;;;;;;67.87;23.70;;;;;;;;;;12907985;23;20202;-57
2021/01/03 02:19:04;;;;;;;78.50;25.27;;;;;;;;;;12884570;23;20455;-56
2021/01/03 02:24:09;;;;;;;74.00;24.20;;;;;;;;;;12884221;23;20186;-54
2021/01/03 02:29:12;;;;;;;64.63;23.17;;;;;;;;;;12886409;23;20211;-56
2021/01/03 02:34:16;;;;;;;84.20;25.57;;;;;;;;;;12884745;23;20206;-58
2021/01/03 02:39:22;;;;;;;76.90;25.07;;;;;;;;;;12884132;23;20521;-58
2021/01/03 02:44:25;;;;;;;73.23;24.10;;;;;;;;;;12904683;23;21095;-57
2021/01/03 02:49:27;;;;;;;79.13;25.37;;;;;;;;;;12885929;23;20176;-57
2021/01/03 02:54:28;;;;;;;85.73;25.23;;;;;;;;;;12884366;23;20206;-54
2021/01/03 02:59:31;;;;;;;74.10;24.47;;;;;;;;;;12886080;23;20189;-58
2021/01/03 03:04:33;;;;;;;69.33;23.97;;;;;;;;;;12882676;23;20194;-57
2021/01/03 03:09:34;;;;;;;69.23;24.40;;;;;;;;;;12888643;23;20251;-55
2021/01/03 03:14:37;;;;;;;69.27;24.43;;;;;;;;;;12889135;23;20203;-59
2021/01/03 03:19:38;;;;;;;79.03;25.37;;;;;;;;;;12890435;23;20179;-58
2021/01/03 03:24:40;;;;;;;81.00;26.13;;;;;;;;;;12887140;23;20183;-60
2021/01/03 03:29:43;;;;;;;85.27;25.07;;;;;;;;;;12890622;23;20207;-58
2021/01/03 03:34:44;;;;;;;85.93;26.77;;;;;;;;;;12886627;23;20217;-57
2021/01/03 03:39:46;;;;;;;78.47;25.67;;;;;;;;;;12888706;23;20179;-55
2021/01/03 03:44:48;;;;;;;85.70;26.23;;;;;;;;;;12886894;23;20656;-56
2021/01/03 03:49:50;;;;;;;81.70;25.30;;;;;;;;;;12889120;23;20185;-55
2021/01/03 03:54:52;;;;;;;84.77;23.77;;;;;;;;;;12887455;23;20221;-56
2021/01/03 03:59:54;;;;;;;74.10;23.83;;;;;;;;;;12884708;23;20198;-56
2021/01/03 04:04:56;;;;;;;82.07;25.53;;;;;;;;;;12887037;23;20705;-54
2021/01/03 04:09:58;;;;;;;83.60;24.17;;;;;;;;;;12886336;23;20175;-56
2021/01/03 04:15:01;;;;;;;80.23;24.67;;;;;;;;;;12889857;23;20202;-57
2021/01/03 04:20:03;;;;;;;83.23;26.10;;;;;;;;;;12885397;23;20182;-56
2021/01/03 04:25:05;;;;;;;78.27;24.70;;;;;;;;;;12888951;23;20175;-56
2021/01/03 04:30:08;;;;;;;81.97;24.87;;;;;;;;;;12885994;23;20210;-57
2021/01/03 04:35:11;;;;;;;81.50;24.93;;;;;;;;;;12886990;23;20548;-56
2021/01/03 04:40:16;;;;;;;90.03;25.33;;;;;;;;;;12885975;23;20201;-56
2021/01/03 04:45:22;;;;;;;85.50;24.53;;;;;;;;;;12891437;23;20175;-56
2021/01/03 04:50:32;;;;;;;73.03;23.70;;;;;;;;;;12909191;23;20243;-56
2021/01/03 04:55:35;;;;;;;74.57;24.63;;;;;;;;;;12911121;23;20563;-57
2021/01/03 05:00:42;;;;;;;67.90;22.37;;;;;;;;;;12885787;23;20171;-56
2021/01/03 05:05:46;;;;;;;71.20;22.27;;;;;;;;;;12889572;23;20278;-55
2021/01/03 05:10:47;;;;;;;62.87;22.37;;;;;;;;;;12883687;23;20179;-56
2021/01/03 05:15:50;;;;;;;58.93;20.77;;;;;;;;;;12887894;23;20880;-55
2021/01/03 05:20:52;;;;;;;67.50;21.60;;;;;;;;;;12885112;23;20179;-54
2021/01/03 05:25:55;;;;;;;64.17;22.03;;;;;;;;;;12887247;23;20186;-56
2021/01/03 05:31:10;;;;;;;63.53;21.40;;;;;;;;;;12884809;23;20396;-56
2021/01/03 05:36:19;;;;;;;63.23;22.67;;;;;;;;;;12907090;23;20691;-57
2021/01/03 05:41:26;;;;;;;65.63;23.10;;;;;;;;;;12904274;23;20171;-56
2021/01/03 05:46:33;;;;;;;66.80;22.70;;;;;;;;;;12908887;23;20175;-56
2021/01/03 05:51:37;;;;;;;69.80;21.63;;;;;;;;;;12904703;23;20552;-56
2021/01/03 05:56:40;;;;;;;63.37;23.57;;;;;;;;;;12907883;23;20195;-56
2021/01/03 06:01:43;;;;;;;70.87;24.17;;;;;;;;;;12885960;23;20752;-57
2021/01/03 06:07:03;;;;;;;77.97;24.63;;;;;;;;;;12882624;23;20220;-57
2021/01/03 06:12:07;;;;;;;74.30;23.77;;;;;;;;;;12888297;23;20239;-57
2021/01/03 06:17:17;;;;;;;81.63;25.07;;;;;;;;;;12884117;23;20248;-56
2021/01/03 06:22:29;;;;;;;67.20;23.03;;;;;;;;;;12907487;23;20171;-55
2021/01/03 06:27:32;;;;;;;76.20;24.93;;;;;;;;;;12904823;22;20196;-56
2021/01/03 06:32:54;;;;;;;71.53;25.90;;;;;;;;;;12885395;23;20922;-57
2021/01/03 06:37:57;;;;;;;75.77;25.43;;;;;;;;;;12904088;23;20171;-55
2021/01/03 06:43:11;;;;;;;77.00;24.87;;;;;;;;;;12886899;23;20182;-57
2021/01/03 06:48:27;;;;;;;78.93;26.10;;;;;;;;;;12904054;23;20705;-57
2021/01/03 06:53:38;;;;;;;77.43;27.27;;;;;;;;;;12903977;23;20216;-57
2021/01/03 06:58:58;;;;;;;80.60;25.80;;;;;;;;;;12905337;23;20638;-56
2021/01/03 07:04:03;;;;;;;92.47;27.67;;;;;;;;;;12885184;22;20194;-56
2021/01/03 07:09:06;;;;;;;81.53;26.97;;;;;;;;;;12882469;23;20532;-54
2021/01/03 07:14:10;;;;;;;93.00;29.07;;;;;;;;;;12908233;23;20199;-59
2021/01/03 07:19:16;;;;;;;87.47;28.47;;;;;;;;;;12883810;23;20198;-57
2021/01/03 07:24:26;;;;;;;90.77;29.70;;;;;;;;;;12906462;23;20163;-56
2021/01/03 07:29:28;;;;;;;87.50;28.63;;;;;;;;;;12896532;23;20230;-56
2021/01/03 07:34:32;;;;;;;82.13;27.73;;;;;;;;;;12884881;23;20910;-55
2021/01/03 07:39:34;;;;;;;86.10;29.37;;;;;;;;;;12882400;23;20175;-57
2021/01/03 07:44:36;;;;;;;78.57;26.33;;;;;;;;;;12885359;23;20542;-56
2021/01/03 07:49:40;;;;;;;90.47;28.43;;;;;;;;;;12882038;23;20258;-56
2021/01/03 07:54:47;;;;;;;89.67;29.00;;;;;;;;;;12886760;23;20207;-56
2021/01/03 07:59:49;;;;;;;80.67;27.43;;;;;;;;;;12908537;23;20563;-56
2021/01/03 08:04:53;;;;;;;79.47;27.27;;;;;;;;;;12889395;23;20267;-57
2021/01/03 08:09:55;;;;;;;82.53;28.43;;;;;;;;;;12886893;23;20175;-55
2021/01/03 08:15:00;;;;;;;79.90;27.63;;;;;;;;;;12889514;23;20210;-58
2021/01/03 08:20:06;;;;;;;83.23;28.43;;;;;;;;;;12907459;23;20170;-57
2021/01/03 08:25:13;;;;;;;85.13;28.90;;;;;;;;;;12886550;23;20175;-57
2021/01/03 08:30:27;;;;;;;87.50;30.13;;;;;;;;;;12895288;23;20287;-57
2021/01/03 08:35:31;;;;;;;83.00;30.00;;;;;;;;;;12888303;23;20207;-56
2021/01/03 08:40:33;;;;;;;81.93;29.43;;;;;;;;;;12886453;23;20175;-56
2021/01/03 08:45:37;;;;;;;81.83;29.20;;;;;;;;;;12889547;23;20178;-56
2021/01/03 08:50:43;;;;;;;82.80;29.03;;;;;;;;;;12883562;23;20500;-57
2021/01/03 08:55:45;;;;;;;88.80;30.17;;;;;;;;;;12907904;23;20202;-55
2021/01/03 09:00:48;;;;;;;82.77;28.80;;;;;;;;;;12885215;23;20171;-56
2021/01/03 09:05:55;;;;;;;88.50;29.97;;;;;;;;;;12888524;23;20205;-55
2021/01/03 09:11:05;;;;;;;84.60;29.90;;;;;;;;;;12886246;23;20938;-56
2021/01/03 09:16:18;;;;;;;86.10;30.27;;;;;;;;;;12886935;23;20212;-57
2021/01/03 09:21:21;;;;;;;80.93;29.17;;;;;;;;;;12905940;23;20168;-57
2021/01/03 09:26:23;;;;;;;85.77;30.10;;;;;;;;;;12880814;23;20885;-57
2021/01/03 09:31:26;;;;;;;81.03;30.43;;;;;;;;;;12882832;23;20207;-52
2021/01/03 09:36:34;;;;;;;79.97;28.90;;;;;;;;;;12875671;23;20604;-55
2021/01/03 09:41:43;;;;;;;78.20;28.20;;;;;;;;;;12901661;23;20168;-56
2021/01/03 09:46:51;;;;;;;72.83;28.17;;;;;;;;;;12898588;23;20626;-55
2021/01/03 09:52:03;;;;;;;63.83;25.57;;;;;;;;;;12895355;23;20190;-54
2021/01/03 09:57:05;;;;;;;63.60;25.37;;;;;;;;;;12898079;23;20194;-56
2021/01/03 10:02:13;;;;;;;64.87;25.47;;;;;;;;;;12880115;23;20202;-56
2021/01/03 10:07:19;;;;;;;67.33;26.00;;;;;;;;;;12875198;23;20175;-55
2021/01/03 10:12:24;;;;;;;58.70;23.13;;;;;;;;;;12899345;23;20185;-57
2021/01/03 10:17:26;;;;;;;51.27;19.53;;;;;;;;;;12898134;23;20225;-56
2021/01/03 10:22:31;;;;;;;47.40;18.97;;;;;;;;;;12875107;23;20175;-56
2021/01/03 10:27:33;;;;;;;37.57;16.97;;;;;;;;;;12896141;23;20210;-55
2021/01/03 10:32:35;;;;;;;43.40;17.50;;;;;;;;;;12876404;23;20203;-55
2021/01/03 10:37:38;;;;;;;38.87;17.10;;;;;;;;;;12876981;23;20221;-56
2021/01/03 10:42:40;;;;;;;33.67;15.27;;;;;;;;;;12877631;23;20642;-57
2021/01/03 10:47:41;;;;;;;34.20;15.50;;;;;;;;;;12877114;23;20179;-56
2021/01/03 10:52:44;;;;;;;33.40;15.50;;;;;;;;;;12877460;23;20179;-54
2021/01/03 10:57:46;;;;;;;35.30;14.73;;;;;;;;;;12875446;23;20566;-56
2021/01/03 11:02:47;;;;;;;31.60;13.40;;;;;;;;;;12875991;23;20530;-56
2021/01/03 11:07:50;;;;;;;26.50;12.43;;;;;;;;;;12871633;23;20649;-56
2021/01/03 11:12:51;;;;;;;29.67;13.17;;;;;;;;;;12876764;23;20179;-56
2021/01/03 11:17:53;;;;;;;32.97;13.40;;;;;;;;;;12874073;23;20179;-55
2021/01/03 11:22:56;;;;;;;32.33;14.43;;;;;;;;;;12875168;23;20175;-54
2021/01/03 11:27:58;;;;;;;35.13;15.27;;;;;;;;;;12873761;23;20237;-55
2021/01/03 11:32:59;;;;;;;34.93;15.80;;;;;;;;;;12903611;23;20175;-56
2021/01/03 11:38:02;;;;;;;30.80;14.70;;;;;;;;;;12880945;23;20175;-57
2021/01/03 11:43:03;;;;;;;32.00;14.83;;;;;;;;;;12884361;23;20561;-55
2021/01/03 11:48:05;;;;;;;32.37;13.40;;;;;;;;;;12882135;23;20640;-56
2021/01/03 11:53:08;;;;;;;29.80;13.17;;;;;;;;;;12883346;23;20242;-55
2021/01/03 11:58:09;;;;;;;29.20;13.27;;;;;;;;;;12883463;23;20750;-56
2021/01/03 12:03:12;;;;;;;28.00;12.97;;;;;;;;;;12885791;23;20210;-55
2021/01/03 12:08:14;;;;;;;28.07;12.77;;;;;;;;;;12881198;23;20175;-57
2021/01/03 12:13:15;;;;;;;31.60;14.23;;;;;;;;;;12884263;23;20733;-57
2021/01/03 12:18:20;;;;;;;26.80;12.50;;;;;;;;;;12883845;23;20226;-57
2021/01/03 12:23:23;;;;;;;29.83;13.50;;;;;;;;;;12885313;23;20202;-55
2021/01/03 12:28:25;;;;;;;34.43;14.87;;;;;;;;;;12887021;23;20203;-55
2021/01/03 12:33:26;;;;;;;28.47;12.77;;;;;;;;;;12906096;23;20190;-55
2021/01/03 12:38:29;;;;;;;28.67;13.17;;;;;;;;;;12883733;23;20175;-55
2021/01/03 12:43:30;;;;;;;25.60;12.23;;;;;;;;;;12878853;23;20502;-57
2021/01/03 12:48:35;;;;;;;26.60;12.83;;;;;;;;;;12881244;23;20171;-57
2021/01/03 12:53:38;;;;;;;25.47;12.10;;;;;;;;;;12881672;23;20202;-54
2021/01/03 12:58:40;;;;;;;24.63;11.40;;;;;;;;;;12884493;23;20206;-54
2021/01/03 13:03:41;;;;;;;24.60;11.87;;;;;;;;;;12879637;23;20231;-56
2021/01/03 13:08:44;;;;;;;26.10;11.53;;;;;;;;;;12886101;23;20254;-55
2021/01/03 13:13:45;;;;;;;23.17;11.27;;;;;;;;;;12882520;23;20203;-56
2021/01/03 13:18:47;;;;;;;25.80;11.77;;;;;;;;;;12885801;23;20589;-56
2021/01/03 13:23:50;;;;;;;24.90;11.33;;;;;;;;;;12884322;23;20229;-56
2021/01/03 13:28:52;;;;;;;27.30;12.03;;;;;;;;;;12887213;23;20222;-56
2021/01/03 13:33:53;;;;;;;34.83;13.90;;;;;;;;;;12882997;23;20609;-55
2021/01/03 13:38:56;;;;;;;35.47;15.50;;;;;;;;;;12886404;23;20179;-58
2021/01/03 13:43:58;;;;;;;30.17;14.13;;;;;;;;;;12884085;23;20175;-55
2021/01/03 13:49:02;;;;;;;33.93;14.57;;;;;;;;;;12885106;23;20198;-56
2021/01/03 13:54:04;;;;;;;32.37;15.17;;;;;;;;;;12883049;23;20234;-54
2021/01/03 13:59:06;;;;;;;34.03;15.20;;;;;;;;;;12886649;23;20217;-55
2021/01/03 14:04:08;;;;;;;36.63;15.47;;;;;;;;;;12884153;23;20202;-54
2021/01/03 14:09:11;;;;;;;34.63;15.27;;;;;;;;;;12883602;23;20213;-56
2021/01/03 14:14:13;;;;;;;39.03;16.67;;;;;;;;;;12877954;23;20213;-55
2021/01/03 14:19:14;;;;;;;34.80;15.40;;;;;;;;;;12874374;23;20529;-55
2021/01/03 14:24:17;;;;;;;34.03;15.97;;;;;;;;;;12874821;23;20233;-54
2021/01/03 14:29:19;;;;;;;37.50;15.70;;;;;;;;;;12878239;23;20211;-57
2021/01/03 14:34:24;;;;;;;33.67;18.15;;;;;;;;;;12873426;23;20427;-55
2021/01/03 14:39:27;;;;;;;35.53;15.83;;;;;;;;;;12879682;23;20258;-56
2021/01/03 14:44:30;;;;;;;31.10;14.60;;;;;;;;;;12874950;23;20179;-57
2021/01/03 14:49:53;;;;;;;30.77;14.13;;;;;;;;;;12879052;23;20175;-55
2021/01/03 14:55:15;;;;;;;32.53;13.77;;;;;;;;;;12864471;22;20210;-54
2021/01/03 15:00:19;;;;;;;29.00;13.47;;;;;;;;;;12871285;22;20186;-54
2021/01/03 15:05:23;;;;;;;29.30;12.63;;;;;;;;;;12879338;23;20221;-56
2021/01/03 15:10:25;;;;;;;25.93;11.87;;;;;;;;;;12883884;23;20175;-56
2021/01/03 15:15:37;;;;;;;23.47;11.17;;;;;;;;;;12880573;23;20217;-56
2021/01/03 15:20:39;;;;;;;20.87;9.60;;;;;;;;;;12880597;23;20365;-56
2021/01/03 15:25:43;;;;;;;18.73;8.33;;;;;;;;;;12880393;23;20175;-54
2021/01/03 15:30:49;;;;;;;18.10;8.43;;;;;;;;;;12881366;23;20211;-54
2021/01/03 15:35:52;;;;;;;21.97;9.67;;;;;;;;;;12881211;22;20210;-56
2021/01/03 15:40:56;;;;;;;19.83;9.23;;;;;;;;;;12885485;23;20243;-56
2021/01/03 15:46:02;;;;;;;23.50;9.20;;;;;;;;;;12884757;23;20175;-55
2021/01/03 15:51:04;;;;;;;17.40;8.73;;;;;;;;;;12877529;23;20175;-55
2021/01/03 15:56:05;;;;;;;19.07;8.17;;;;;;;;;;12880070;23;20534;-56
2021/01/03 16:01:08;;;;;;;15.83;7.53;;;;;;;;;;12879653;23;20766;-57
2021/01/03 16:06:10;;;;;;;16.90;8.27;;;;;;;;;;12879560;23;20195;-56
2021/01/03 16:11:11;;;;;;;13.33;7.17;;;;;;;;;;12882000;23;20175;-57
2021/01/03 16:16:14;;;;;;;14.13;7.20;;;;;;;;;;12879882;23;20206;-54
2021/01/03 16:21:15;;;;;;;13.60;7.03;;;;;;;;;;12874889;23;20537;-58
2021/01/03 16:26:23;;;;;;;14.07;6.97;;;;;;;;;;12881426;23;20562;-56
2021/01/03 16:31:28;;;;;;;16.07;8.00;;;;;;;;;;12880000;22;20241;-58
2021/01/03 16:36:40;;;;;;;15.00;7.20;;;;;;;;;;12880968;23;20486;-55
2021/01/03 16:41:54;;;;;;;15.57;7.70;;;;;;;;;;12878602;23;20226;-56
2021/01/03 16:47:07;;;;;;;16.10;8.17;;;;;;;;;;12881526;23;20552;-57
2021/01/03 16:52:13;;;;;;;15.23;8.07;;;;;;;;;;12875991;23;20172;-55
2021/01/03 16:57:30;;;;;;;13.17;6.80;;;;;;;;;;12881723;23;20202;-55
2021/01/03 17:02:34;;;;;;;12.20;6.97;;;;;;;;;;12878203;23;20202;-55
2021/01/03 17:07:39;;;;;;;13.67;7.23;;;;;;;;;;12880036;23;20182;-57
2021/01/03 17:12:56;;;;;;;12.87;7.00;;;;;;;;;;12880554;23;20177;-57
2021/01/03 17:18:02;;;;;;;12.13;6.63;;;;;;;;;;12860656;23;20198;-55
2021/01/03 17:23:08;;;;;;;13.00;7.03;;;;;;;;;;12877760;23;20179;-56
2021/01/03 17:28:25;;;;;;;11.57;6.70;;;;;;;;;;12880051;23;20175;-55
2021/01/03 17:33:30;;;;;;;11.67;6.83;;;;;;;;;;12877114;23;20214;-57
2021/01/03 17:38:36;;;;;;;11.20;6.50;;;;;;;;;;12897574;23;20178;-55
2021/01/03 17:43:42;;;;;;;11.60;7.20;;;;;;;;;;12899680;23;20171;-55
2021/01/03 17:48:46;;;;;;;11.27;6.80;;;;;;;;;;12879358;23;20175;-54
2021/01/03 17:53:48;;;;;;;12.07;6.93;;;;;;;;;;12877540;23;20496;-56
2021/01/03 17:58:49;;;;;;;11.37;6.40;;;;;;;;;;12878631;23;20178;-55
2021/01/03 18:03:53;;;;;;;12.27;6.50;;;;;;;;;;12878982;23;20206;-55
2021/01/03 18:08:55;;;;;;;13.33;6.73;;;;;;;;;;12874398;23;20182;-56
2021/01/03 18:13:56;;;;;;;11.93;7.03;;;;;;;;;;12879663;23;20203;-57
2021/01/03 18:18:59;;;;;;;12.03;6.87;;;;;;;;;;12874955;23;20481;-55
2021/01/03 18:24:01;;;;;;;12.53;6.90;;;;;;;;;;12880427;23;20179;-53
2021/01/03 18:29:02;;;;;;;11.13;6.77;;;;;;;;;;12876855;23;20223;-58
2021/01/03 18:34:05;;;;;;;12.37;6.70;;;;;;;;;;12902189;23;20194;-57
2021/01/03 18:39:06;;;;;;;13.83;8.10;;;;;;;;;;12876342;23;20175;-56
2021/01/03 18:44:09;;;;;;;10.67;6.67;;;;;;;;;;12878563;23;20645;-56
2021/01/03 18:49:12;;;;;;;11.10;6.10;;;;;;;;;;12876364;23;20212;-55
2021/01/03 18:54:13;;;;;;;11.43;6.53;;;;;;;;;;12879960;23;20203;-56
2021/01/03 18:59:16;;;;;;;11.07;6.40;;;;;;;;;;12877764;23;20179;-57
2021/01/03 19:04:19;;;;;;;11.50;6.33;;;;;;;;;;12878845;23;20691;-56
2021/01/03 19:09:25;;;;;;;9.97;6.03;;;;;;;;;;12873937;23;20175;-55
2021/01/03 19:14:27;;;;;;;11.23;5.77;;;;;;;;;;12899127;23;20195;-56
2021/01/03 19:19:30;;;;;;;9.93;5.83;;;;;;;;;;12879302;23;20707;-54
2021/01/03 19:24:32;;;;;;;9.13;5.33;;;;;;;;;;12880790;23;20209;-55
2021/01/03 19:29:33;;;;;;;10.80;5.77;;;;;;;;;;12874433;23;20211;-55
2021/01/03 19:34:38;;;;;;;8.90;5.80;;;;;;;;;;12879417;22;20771;-55
2021/01/03 19:39:40;;;;;;;12.67;5.87;;;;;;;;;;12874486;23;20558;-55
2021/01/03 19:44:42;;;;;;;13.03;5.90;;;;;;;;;;12879195;23;20179;-56
2021/01/03 19:49:45;;;;;;;9.63;5.30;;;;;;;;;;12876158;23;20183;-54
2021/01/03 19:54:47;;;;;;;9.73;5.13;;;;;;;;;;12881487;23;20892;-53
2021/01/03 19:59:50;;;;;;;8.40;4.90;;;;;;;;;;12881127;23;20175;-53
2021/01/03 20:04:53;;;;;;;11.23;5.70;;;;;;;;;;12879847;23;20286;-54
2021/01/03 20:09:55;;;;;;;12.23;5.50;;;;;;;;;;12881260;23;20187;-52
2021/01/03 20:14:57;;;;;;;9.00;4.83;;;;;;;;;;12880159;23;20206;-54
2021/01/03 20:19:59;;;;;;;12.27;5.40;;;;;;;;;;12878933;23;20279;-55
2021/01/03 20:25:01;;;;;;;10.67;5.63;;;;;;;;;;12878886;23;20247;-56
2021/01/03 20:30:03;;;;;;;15.20;5.40;;;;;;;;;;12881545;23;20203;-55
2021/01/03 20:35:07;;;;;;;11.23;5.43;;;;;;;;;;12877788;23;20214;-52
2021/01/03 20:40:09;;;;;;;10.90;5.83;;;;;;;;;;12881120;23;20175;-58
2021/01/03 20:45:11;;;;;;;11.37;5.53;;;;;;;;;;12879209;23;20190;-59
2021/01/03 20:50:15;;;;;;;10.07;5.13;;;;;;;;;;12880819;23;20175;-56
2021/01/03 20:55:17;;;;;;;11.30;5.67;;;;;;;;;;12878193;23;20203;-54
2021/01/03 21:00:20;;;;;;;11.83;5.43;;;;;;;;;;12901247;23;20705;-54
2021/01/03 21:05:23;;;;;;;10.80;5.83;;;;;;;;;;12876002;23;20199;-54
2021/01/03 21:10:25;;;;;;;9.73;5.73;;;;;;;;;;12880654;23;20247;-55
2021/01/03 21:15:27;;;;;;;14.73;5.73;;;;;;;;;;12875549;23;20539;-53
2021/01/03 21:20:29;;;;;;;10.03;5.57;;;;;;;;;;12879795;23;20604;-56
2021/01/03 21:25:33;;;;;;;10.53;5.70;;;;;;;;;;12879262;23;20175;-55
2021/01/03 21:30:44;;;;;;;13.60;5.73;;;;;;;;;;12880627;23;20512;-55
2021/01/03 21:35:51;;;;;;;10.90;5.63;;;;;;;;;;12873398;23;20242;-57
2021/01/03 21:40:59;;;;;;;12.37;6.20;;;;;;;;;;12879888;23;20175;-57
2021/01/03 21:46:03;;;;;;;13.67;6.43;;;;;;;;;;12898103;23;20171;-55
2021/01/03 21:51:07;;;;;;;15.93;6.67;;;;;;;;;;12878307;23;20175;-56
2021/01/03 21:56:19;;;;;;;13.83;6.30;;;;;;;;;;12878122;23;20564;-57
2021/01/03 22:01:48;;;;;;;13.67;7.20;;;;;;;;;;12884026;23;20175;-57
2021/01/03 22:07:00;;;;;;;14.03;6.73;;;;;;;;;;12904812;23;20163;-57
2021/01/03 22:12:11;;;;;;;16.20;7.10;;;;;;;;;;12904130;23;20221;-55
2021/01/03 22:17:18;;;;;;;15.70;6.90;;;;;;;;;;12904622;23;20224;-55
2021/01/03 22:22:34;;;;;;;12.97;7.60;;;;;;;;;;12903263;23;20982;-56
2021/01/03 22:27:51;;;;;;;15.33;7.80;;;;;;;;;;12904351;23;20933;-56
2021/01/03 22:32:56;;;;;;;15.43;8.00;;;;;;;;;;12888273;23;20207;-55
2021/01/03 22:38:15;;;;;;;15.67;7.80;;;;;;;;;;12882119;23;20211;-56
2021/01/03 22:43:35;;;;;;;15.83;8.63;;;;;;;;;;12884640;22;20183;-54
2021/01/03 22:48:52;;;;;;;14.50;7.63;;;;;;;;;;12884277;23;20197;-54
2021/01/03 22:53:57;;;;;;;19.50;8.97;;;;;;;;;;12904332;23;20504;-55
2021/01/03 22:59:26;;;;;;;15.37;7.60;;;;;;;;;;12906005;23;20195;-54
2021/01/03 23:04:33;;;;;;;14.67;8.20;;;;;;;;;;12822879;22;20987;-55
2021/01/03 23:09:37;;;;;;;16.17;7.93;;;;;;;;;;12903717;23;20177;-56
2021/01/03 23:14:39;;;;;;;17.80;8.60;;;;;;;;;;12883704;23;20669;-56
2021/01/03 23:19:45;;;;;;;16.77;8.03;;;;;;;;;;12883940;23;20185;-56
2021/01/03 23:24:47;;;;;;;17.00;8.30;;;;;;;;;;12906327;23;20171;-55
2021/01/03 23:29:50;;;;;;;18.00;8.50;;;;;;;;;;12888641;23;20214;-52
2021/01/03 23:34:53;;;;;;;18.13;8.57;;;;;;;;;;12886710;23;20246;-55
2021/01/03 23:40:00;;;;;;;15.07;8.07;;;;;;;;;;12886491;23;20727;-57
2021/01/03 23:45:05;;;;;;;18.80;8.03;;;;;;;;;;12909694;23;20202;-56
2021/01/03 23:50:08;;;;;;;15.17;7.90;;;;;;;;;;12888015;23;20206;-55
2021/01/03 23:55:27;;;;;;;15.03;7.33;;;;;;;;;;12890374;23;20215;-55
